createdAt,value
2022-08-16T00:06:13.469Z,76.00
2022-08-16T00:17:05.552Z,76.00
2022-08-16T00:26:44.281Z,74.00
2022-08-16T00:36:47.234Z,76.00
2022-08-16T00:47:05.968Z,76.00
2022-08-16T00:57:07.263Z,74.00
2022-08-16T01:07:19.127Z,74.00
2022-08-16T01:17:26.519Z,74.00
2022-08-16T01:27:34.541Z,74.00
2022-08-16T01:37:42.241Z,78.00
2022-08-16T01:47:51.261Z,78.00
2022-08-16T01:57:59.603Z,74.00
2022-08-16T02:08:07.104Z,74.00
2022-08-16T02:18:18.739Z,74.00
2022-08-16T02:28:25.488Z,76.00
2022-08-16T02:38:33.973Z,76.00
2022-08-16T02:48:47.472Z,76.00
2022-08-16T02:58:53.611Z,74.00
2022-08-16T03:09:01.365Z,74.00
2022-08-16T03:19:08.619Z,74.00
2022-08-16T03:29:16.048Z,78.00
2022-08-16T03:39:23.979Z,76.00
2022-08-16T03:49:36.491Z,74.00
2022-08-16T03:59:44.030Z,74.00
2022-08-16T04:09:51.427Z,74.00
2022-08-16T04:20:00.154Z,74.00
2022-08-16T04:30:10.856Z,74.00
2022-08-16T04:40:21.563Z,74.00
2022-08-16T04:50:30.729Z,78.00
2022-08-16T05:00:38.005Z,76.00
2022-08-16T05:10:47.841Z,114.00
2022-08-16T05:21:01.608Z,112.00
2022-08-16T05:31:08.802Z,112.00
2022-08-16T05:41:17.377Z,114.00
2022-08-16T05:51:37.734Z,112.00
2022-08-16T06:01:38.742Z,114.00
2022-08-16T06:11:46.020Z,112.00
2022-08-16T06:21:55.355Z,116.00
2022-08-16T06:32:04.278Z,114.00
2022-08-16T06:42:11.722Z,114.00
2022-08-16T06:52:59.682Z,112.00
2022-08-16T07:02:32.462Z,118.00
2022-08-16T07:12:47.161Z,82.00
2022-08-16T07:22:53.047Z,84.00
2022-08-16T07:33:04.543Z,78.00
2022-08-16T07:43:14.600Z,82.00
2022-08-16T07:53:21.946Z,84.00
2022-08-16T08:03:35.901Z,80.00
2022-08-16T08:13:43.065Z,80.00
2022-08-16T08:23:50.658Z,74.00
2022-08-16T08:33:58.670Z,74.00
2022-08-16T08:44:28.007Z,78.00
2022-08-16T08:54:20.502Z,76.00
2022-08-16T09:04:28.243Z,72.00
2022-08-16T09:14:35.734Z,74.00
2022-08-16T09:24:52.142Z,72.00
2022-08-16T09:34:58.298Z,72.00
2022-08-16T09:45:11.323Z,78.00
2022-08-16T09:55:18.589Z,80.00
2022-08-16T10:05:25.816Z,80.00
2022-08-16T10:15:35.410Z,80.00
2022-08-16T10:27:11.322Z,80.00
2022-08-16T10:35:57.642Z,80.00
2022-08-16T10:46:39.261Z,78.00
2022-08-16T10:56:52.141Z,84.00
2022-08-16T11:06:34.261Z,80.00
2022-08-16T11:27:18.667Z,78.00
2022-08-16T11:37:04.123Z,78.00
2022-08-16T11:47:12.328Z,78.00
2022-08-16T11:57:20.740Z,78.00
2022-08-16T12:07:29.486Z,76.00
2022-08-16T12:17:39.988Z,74.00
2022-08-16T12:27:49.765Z,60.00
2022-08-16T12:37:56.874Z,62.00
2022-08-16T12:48:31.456Z,60.00
2022-08-16T12:58:49.941Z,62.00
2022-08-16T13:08:30.682Z,74.00
2022-08-16T13:18:37.176Z,70.00
2022-08-16T13:28:46.240Z,64.00
2022-08-16T13:38:55.180Z,64.00
2022-08-16T13:49:04.623Z,58.00
2022-08-16T13:59:16.558Z,58.00
2022-08-16T14:09:24.210Z,70.00
2022-08-16T14:19:30.811Z,70.00
2022-08-16T14:29:38.286Z,74.00
2022-08-16T14:39:45.058Z,74.00
2022-08-16T14:49:52.538Z,54.00
2022-08-16T15:00:04.673Z,56.00
2022-08-16T15:10:23.868Z,70.00
2022-08-16T15:20:26.362Z,70.00
2022-08-16T15:30:56.776Z,78.00
2022-08-16T15:40:52.184Z,80.00
2022-08-16T15:50:57.222Z,74.00
2022-08-16T16:01:04.058Z,68.00
2022-08-16T16:11:11.586Z,66.00
2022-08-16T16:21:20.634Z,66.00
2022-08-16T16:31:27.388Z,68.00
2022-08-16T16:41:34.497Z,70.00
2022-08-16T16:51:44.502Z,66.00
2022-08-16T17:01:57.729Z,64.00
2022-08-16T17:12:05.191Z,64.00
2022-08-16T17:22:15.234Z,72.00
2022-08-16T17:32:44.555Z,76.00
2022-08-16T17:42:33.912Z,74.00
2022-08-16T17:52:49.047Z,70.00
2022-08-16T18:02:53.205Z,74.00
2022-08-16T18:13:00.644Z,70.00
2022-08-16T18:23:08.507Z,70.00
2022-08-16T18:33:15.410Z,72.00
2022-08-16T18:43:59.194Z,72.00
2022-08-16T18:53:34.949Z,70.00
2022-08-16T19:03:42.605Z,70.00
2022-08-16T19:13:49.600Z,70.00
2022-08-16T19:23:56.795Z,70.00
2022-08-16T19:34:03.542Z,72.00
2022-08-16T19:44:10.552Z,68.00
2022-08-16T19:54:18.488Z,68.00
2022-08-16T20:04:25.584Z,66.00
2022-08-16T20:14:32.718Z,72.00
2022-08-16T20:24:40.045Z,66.00
2022-08-16T20:34:47.602Z,68.00
2022-08-16T20:44:54.625Z,66.00
2022-08-16T20:55:02.213Z,64.00
2022-08-16T21:05:09.484Z,68.00
2022-08-16T21:15:16.920Z,66.00
2022-08-16T21:25:24.064Z,64.00
2022-08-16T21:35:32.824Z,70.00
2022-08-16T21:45:40.201Z,70.00
2022-08-16T21:55:47.297Z,68.00
2022-08-16T22:06:12.620Z,70.00
2022-08-16T22:16:06.876Z,66.00
2022-08-16T22:26:13.858Z,64.00
2022-08-16T22:36:21.149Z,70.00
2022-08-16T22:46:28.779Z,64.00
2022-08-16T22:56:35.798Z,68.00
2022-08-16T23:06:42.925Z,70.00
2022-08-16T23:16:49.941Z,66.00
2022-08-16T23:26:56.907Z,66.00
2022-08-16T23:37:04.305Z,66.00
2022-08-16T23:47:10.971Z,66.00
2022-08-16T23:57:18.717Z,68.00
